Time;durP1;ratioP1;P1;durP2;ratioP2;P2;SDS_P1;SDS_P2;PMS_P1;PMS_P2;Temp;Humidity;BMP_temperature;BMP_pressure;BME280_temperature;BME280_humidity;BME280_pressure;Samples;Min_cycle;Max_cycle;Signal;HPM_P1;HPM_P2
2022/03/20 00:00:53;;;;;;;20.35;18.10;;;3.20;29.80;;;;;;5034275;28;20523;-68
2022/03/20 00:03:20;;;;;;;23.15;19.10;;;3.30;30.00;;;;;;5033813;28;20218;-68
2022/03/20 00:05:47;;;;;;;20.70;18.08;;;3.40;29.70;;;;;;5035795;28;20191;-69
2022/03/20 00:08:13;;;;;;;26.90;18.63;;;3.50;29.50;;;;;;5034338;28;20647;-68
2022/03/20 00:10:42;;;;;;;19.15;17.05;;;3.50;29.40;;;;;;5032671;28;20184;-69
2022/03/20 00:13:08;;;;;;;23.05;20.48;;;3.60;28.80;;;;;;5034079;28;20665;-69
2022/03/20 00:15:35;;;;;;;26.55;17.02;;;3.70;28.70;;;;;;5033699;28;20645;-69
2022/03/20 00:18:03;;;;;;;23.23;18.90;;;3.60;28.40;;;;;;5033214;28;20318;-68
2022/03/20 00:20:37;;;;;;;21.98;17.13;;;3.50;28.80;;;;;;5033086;28;20451;-69
2022/03/20 00:23:08;;;;;;;25.38;21.23;;;3.50;28.90;;;;;;5026638;28;20207;-68
2022/03/20 00:25:34;;;;;;;19.00;16.17;;;3.30;29.50;;;;;;5033435;28;20187;-69
2022/03/20 00:28:02;;;;;;;21.87;18.87;;;3.30;29.90;;;;;;5033059;28;20184;-68
2022/03/20 00:30:28;;;;;;;23.25;17.73;;;3.30;29.60;;;;;;5032939;28;20184;-69
2022/03/20 00:32:53;;;;;;;24.47;20.63;;;3.50;29.50;;;;;;5033145;28;20183;-68
2022/03/20 00:35:19;;;;;;;21.10;17.40;;;3.60;29.30;;;;;;5032868;28;20196;-68
2022/03/20 00:37:44;;;;;;;20.27;17.60;;;3.60;29.10;;;;;;5032627;28;20195;-69
2022/03/20 00:40:10;;;;;;;20.13;17.23;;;3.70;28.90;;;;;;5031607;28;20274;-68
2022/03/20 00:42:36;;;;;;;22.73;20.20;;;3.70;29.00;;;;;;5032311;28;20196;-68
2022/03/20 00:45:02;;;;;;;19.60;16.70;;;3.80;28.70;;;;;;5032661;28;20599;-68
2022/03/20 00:47:27;;;;;;;20.43;18.23;;;3.90;28.30;;;;;;5032729;28;20165;-69
2022/03/20 00:49:53;;;;;;;17.60;15.77;;;4.00;28.00;;;;;;5033271;28;20414;-68
2022/03/20 00:52:18;;;;;;;19.83;17.73;;;4.00;27.70;;;;;;5033015;28;20180;-68
2022/03/20 00:54:44;;;;;;;18.87;16.93;;;4.00;27.70;;;;;;5033150;28;20199;-68
2022/03/20 00:57:09;;;;;;;20.10;16.90;;;4.00;27.70;;;;;;5032954;28;20171;-69
2022/03/20 00:59:35;;;;;;;22.60;18.53;;;4.10;27.80;;;;;;5017316;28;20198;-69
2022/03/20 01:02:00;;;;;;;23.77;19.07;;;4.10;27.80;;;;;;5012928;28;20526;-68
2022/03/20 01:04:26;;;;;;;27.03;18.53;;;4.00;27.70;;;;;;5012617;28;20298;-69
2022/03/20 01:06:55;;;;;;;21.33;17.00;;;4.10;27.80;;;;;;5025685;28;20180;-68
2022/03/20 01:09:22;;;;;;;18.85;16.88;;;4.00;27.70;;;;;;5032374;28;20172;-70
2022/03/20 01:11:47;;;;;;;20.13;18.05;;;4.00;27.70;;;;;;5032052;28;20315;-70
2022/03/20 01:14:13;;;;;;;21.43;18.57;;;4.00;27.70;;;;;;5030824;28;20298;-69
2022/03/20 01:16:38;;;;;;;23.00;19.57;;;4.00;27.40;;;;;;5032088;28;20190;-69
2022/03/20 01:19:04;;;;;;;20.70;18.70;;;3.90;27.70;;;;;;5030882;28;20179;-69
2022/03/20 01:21:30;;;;;;;29.20;20.40;;;3.90;27.60;;;;;;5031954;28;20657;-69
2022/03/20 01:23:56;;;;;;;23.90;20.40;;;3.70;27.60;;;;;;5032038;28;20570;-69
2022/03/20 01:26:21;;;;;;;21.93;19.20;;;3.70;27.90;;;;;;5031938;28;20176;-67
2022/03/20 01:28:47;;;;;;;18.67;16.70;;;3.80;27.60;;;;;;5031903;28;20761;-69
2022/03/20 01:31:13;;;;;;;22.67;19.20;;;3.80;27.60;;;;;;5032057;28;20703;-69
2022/03/20 01:33:38;;;;;;;23.17;19.70;;;3.70;27.50;;;;;;5031926;28;20199;-70
2022/03/20 01:36:04;;;;;;;24.40;18.70;;;3.70;27.50;;;;;;5030335;28;20219;-69
2022/03/20 01:38:30;;;;;;;24.63;19.83;;;3.80;27.60;;;;;;5031644;28;20183;-69
2022/03/20 01:40:55;;;;;;;26.73;18.57;;;3.80;27.60;;;;;;5031985;28;20179;-69
2022/03/20 01:43:21;;;;;;;27.40;20.30;;;3.80;27.60;;;;;;5031814;28;20212;-69
2022/03/20 01:45:46;;;;;;;24.00;20.20;;;3.50;27.40;;;;;;5031918;28;20554;-69
2022/03/20 01:48:12;;;;;;;21.60;19.23;;;3.40;28.00;;;;;;5031582;28;20224;-70
2022/03/20 01:50:39;;;;;;;25.73;19.47;;;3.50;27.40;;;;;;5031563;28;20190;-69
2022/03/20 01:53:06;;;;;;;24.38;20.52;;;3.50;27.40;;;;;;5031873;28;20577;-69
2022/03/20 01:55:32;;;;;;;22.10;20.02;;;3.60;27.40;;;;;;5034779;28;20202;-69
2022/03/20 01:57:58;;;;;;;25.52;20.80;;;3.50;27.40;;;;;;5035615;28;20538;-69
2022/03/20 02:00:26;;;;;;;27.50;20.90;;;3.50;27.40;;;;;;5036059;28;20183;-69
2022/03/20 02:02:53;;;;;;;19.92;17.63;;;3.40;27.30;;;;;;5035877;28;20454;-68
2022/03/20 02:05:19;;;;;;;21.92;19.80;;;3.40;27.30;;;;;;5051286;28;20195;-69
2022/03/20 02:07:45;;;;;;;24.92;20.65;;;3.40;27.30;;;;;;5035763;28;20203;-69
2022/03/20 02:10:11;;;;;;;28.15;20.08;;;3.30;27.30;;;;;;5035771;28;20233;-69
2022/03/20 02:12:38;;;;;;;23.30;19.47;;;3.30;27.30;;;;;;5051120;28;20182;-69
2022/03/20 02:15:06;;;;;;;29.15;21.33;;;3.10;27.40;;;;;;5036355;28;20203;-71
2022/03/20 02:17:34;;;;;;;24.38;20.27;;;3.00;28.20;;;;;;5035958;28;20187;-67
2022/03/20 02:20:03;;;;;;;24.50;21.15;;;3.10;28.10;;;;;;5036051;28;20179;-68
2022/03/20 02:22:29;;;;;;;29.27;19.45;;;3.10;28.30;;;;;;5036151;28;20197;-68
2022/03/20 02:24:55;;;;;;;23.65;18.27;;;3.20;28.30;;;;;;5036437;28;20207;-68
2022/03/20 02:27:23;;;;;;;21.90;19.13;;;3.20;28.50;;;;;;5035920;28;20661;-68
2022/03/20 02:29:57;;;;;;;23.48;18.55;;;3.20;28.60;;;;;;5036389;28;20213;-67
2022/03/20 02:32:27;;;;;;;22.63;17.45;;;3.30;28.50;;;;;;5035864;28;20168;-68
2022/03/20 02:34:57;;;;;;;21.70;19.23;;;3.10;28.80;;;;;;5035668;28;20253;-67
2022/03/20 02:37:24;;;;;;;23.48;19.15;;;3.30;28.60;;;;;;5035412;28;20274;-68
2022/03/20 02:39:53;;;;;;;23.95;21.00;;;3.40;28.20;;;;;;5036424;28;20719;-68
2022/03/20 02:42:19;;;;;;;27.95;19.90;;;3.40;27.80;;;;;;5035898;28;20195;-67
2022/03/20 02:44:54;;;;;;;29.47;21.57;;;3.30;28.60;;;;;;5035414;28;20207;-68
2022/03/20 02:47:23;;;;;;;22.90;19.48;;;3.00;29.40;;;;;;5035016;28;20248;-67
2022/03/20 02:50:09;;;;;;;20.48;17.48;;;2.90;30.00;;;;;;5035011;28;20179;-68
2022/03/20 02:53:15;;;;;;;25.75;19.90;;;3.00;29.70;;;;;;5035416;28;20167;-68
2022/03/20 02:55:44;;;;;;;21.75;18.10;;;3.10;29.30;;;;;;5035817;28;20664;-68
2022/03/20 02:58:17;;;;;;;22.80;19.92;;;3.20;29.00;;;;;;5035160;28;20215;-67
2022/03/20 03:00:43;;;;;;;27.38;21.55;;;3.20;29.10;;;;;;5035439;28;20255;-68
2022/03/20 03:03:10;;;;;;;23.92;19.90;;;3.00;29.20;;;;;;5034617;28;20230;-68
2022/03/20 03:05:37;;;;;;;27.00;20.17;;;2.90;29.90;;;;;;5034669;28;20633;-67
2022/03/20 03:10:56;;;;;;;23.33;20.90;;;3.00;29.20;;;;;;5035270;28;20182;-67
2022/03/20 03:13:36;;;;;;;24.20;19.85;;;2.90;29.50;;;;;;5034764;28;20190;-68
2022/03/20 03:16:05;;;;;;;27.50;22.20;;;3.00;29.20;;;;;;5035096;28;20264;-68
2022/03/20 03:18:31;;;;;;;30.50;22.92;;;2.90;29.30;;;;;;5034728;28;20179;-68
2022/03/20 03:20:59;;;;;;;22.83;20.30;;;2.70;29.80;;;;;;5033505;28;20198;-68
2022/03/20 03:23:25;;;;;;;27.80;20.75;;;2.60;31.00;;;;;;5034773;28;20959;-68
2022/03/20 03:25:51;;;;;;;24.10;18.80;;;2.60;31.00;;;;;;5035271;28;20315;-67
2022/03/20 03:28:17;;;;;;;32.08;22.92;;;2.70;31.10;;;;;;5035216;28;20779;-68
2022/03/20 03:30:45;;;;;;;22.70;19.43;;;2.80;30.70;;;;;;5035205;28;20179;-68
2022/03/20 03:33:16;;;;;;;26.85;21.13;;;2.90;30.10;;;;;;5034859;28;20213;-68
2022/03/20 03:35:43;;;;;;;30.70;23.05;;;2.60;31.00;;;;;;5034966;28;20532;-67
2022/03/20 03:38:13;;;;;;;31.02;22.45;;;2.40;32.00;;;;;;5034441;28;20582;-68
2022/03/20 03:40:40;;;;;;;32.35;21.27;;;2.60;31.90;;;;;;5034277;28;20606;-67
2022/03/20 03:43:06;;;;;;;28.95;23.98;;;2.80;30.20;;;;;;5034101;28;20206;-68
2022/03/20 03:45:32;;;;;;;22.70;20.07;;;2.90;29.70;;;;;;5034275;28;20171;-68
2022/03/20 03:47:57;;;;;;;23.13;19.73;;;3.00;28.80;;;;;;5034290;28;20427;-68
2022/03/20 03:50:23;;;;;;;22.73;19.50;;;3.10;28.40;;;;;;5034722;28;20418;-68
2022/03/20 03:52:49;;;;;;;23.43;17.50;;;3.30;28.00;;;;;;5034618;28;20174;-68
2022/03/20 03:55:16;;;;;;;21.50;18.23;;;3.20;27.50;;;;;;5034537;28;20196;-67
2022/03/20 03:57:46;;;;;;;22.13;19.92;;;3.30;27.30;;;;;;5034622;28;20176;-68
2022/03/20 04:00:13;;;;;;;32.20;22.25;;;3.30;27.30;;;;;;5015230;28;20696;-67
2022/03/20 04:02:38;;;;;;;23.63;19.38;;;3.40;27.30;;;;;;5029624;28;20188;-68
2022/03/20 04:05:05;;;;;;;24.27;21.63;;;3.40;27.70;;;;;;5034496;28;20202;-67
2022/03/20 04:07:30;;;;;;;26.48;20.52;;;3.50;27.50;;;;;;5033984;28;20207;-67
2022/03/20 04:09:56;;;;;;;24.53;19.97;;;3.50;27.40;;;;;;5034470;28;20262;-68
2022/03/20 04:12:22;;;;;;;22.00;19.80;;;3.70;27.50;;;;;;5034463;28;20534;-68
2022/03/20 04:14:48;;;;;;;30.07;20.17;;;3.70;27.10;;;;;;5033889;28;20210;-68
2022/03/20 04:17:14;;;;;;;27.43;22.00;;;3.80;26.80;;;;;;5032551;28;20724;-67
2022/03/20 04:19:41;;;;;;;29.05;20.45;;;3.70;27.00;;;;;;5033644;28;20190;-68
2022/03/20 04:22:07;;;;;;;25.92;20.70;;;3.90;26.30;;;;;;5034097;28;20179;-68
2022/03/20 04:24:33;;;;;;;20.17;16.80;;;3.70;26.80;;;;;;5033844;28;20203;-68
2022/03/20 04:26:58;;;;;;;21.67;18.43;;;3.60;27.40;;;;;;5034040;28;20226;-68
2022/03/20 04:29:27;;;;;;;20.03;18.13;;;3.60;27.50;;;;;;5034115;28;20184;-68
2022/03/20 04:31:54;;;;;;;23.05;20.75;;;3.80;27.10;;;;;;5033761;28;20179;-67
2022/03/20 04:34:20;;;;;;;26.67;19.70;;;3.70;27.00;;;;;;5033694;28;20189;-67
2022/03/20 04:36:46;;;;;;;24.08;20.83;;;3.60;27.10;;;;;;5033313;28;20527;-68
2022/03/20 04:39:12;;;;;;;23.20;19.40;;;3.50;26.90;;;;;;5033315;28;20187;-68
2022/03/20 04:41:37;;;;;;;25.07;18.73;;;3.60;26.70;;;;;;5033286;28;20900;-68
2022/03/20 04:44:03;;;;;;;28.93;22.27;;;3.60;26.70;;;;;;5032933;28;20269;-68
2022/03/20 04:46:29;;;;;;;25.10;20.27;;;3.50;26.00;;;;;;5031264;28;20228;-68
2022/03/20 04:59:51;;;;;;;20.63;18.23;;;4.10;25.50;;;;;;5032775;28;20257;-68
2022/03/20 05:02:17;;;;;;;26.97;20.87;;;4.10;25.20;;;;;;5032890;28;20179;-68
2022/03/20 05:04:43;;;;;;;25.13;22.55;;;4.10;25.40;;;;;;5032891;28;20562;-68
2022/03/20 05:07:09;;;;;;;24.23;21.73;;;4.20;25.00;;;;;;5033406;28;20665;-68
2022/03/20 05:15:09;;;;;;;24.05;19.45;;;4.00;24.90;;;;;;5033383;28;20574;-68
2022/03/20 05:17:35;;;;;;;26.00;21.13;;;4.00;25.10;;;;;;5032350;28;20223;-67
2022/03/20 05:20:02;;;;;;;22.52;20.10;;;4.00;25.10;;;;;;5032442;28;20171;-67
2022/03/20 05:22:27;;;;;;;22.60;20.10;;;4.00;25.50;;;;;;5033013;28;20266;-67
2022/03/20 05:24:53;;;;;;;24.77;22.10;;;4.10;23.10;;;;;;5033095;28;20373;-68
2022/03/20 05:27:18;;;;;;;30.03;25.33;;;4.20;21.80;;;;;;5032967;28;20177;-67
2022/03/20 05:29:44;;;;;;;28.13;25.33;;;4.40;19.60;;;;;;5022052;28;20219;-67
2022/03/20 05:32:10;;;;;;;26.70;24.00;;;4.50;18.50;;;;;;5013794;28;20185;-67
2022/03/20 05:34:37;;;;;;;28.25;25.42;;;4.60;18.40;;;;;;5013201;28;20230;-68
2022/03/20 05:37:03;;;;;;;26.33;23.67;;;4.70;18.20;;;;;;5013269;28;20177;-68
2022/03/20 05:39:29;;;;;;;30.25;25.15;;;4.80;17.70;;;;;;5012858;28;20177;-68
2022/03/20 05:41:54;;;;;;;28.10;25.20;;;5.00;18.80;;;;;;5012471;28;20548;-68
2022/03/20 05:44:22;;;;;;;23.70;21.50;;;5.00;19.30;;;;;;5021557;28;20475;-68
2022/03/20 05:46:49;;;;;;;26.02;23.38;;;5.10;19.60;;;;;;5024482;28;20547;-68
2022/03/20 05:49:22;;;;;;;26.17;23.42;;;5.10;20.20;;;;;;5013037;28;20205;-68
2022/03/20 05:51:49;;;;;;;26.98;24.23;;;5.10;19.60;;;;;;5012492;28;20178;-69
2022/03/20 05:54:16;;;;;;;25.75;23.25;;;5.20;19.20;;;;;;5012034;28;20252;-69
2022/03/20 05:59:29;;;;;;;29.02;24.05;;;5.40;18.10;;;;;;5024135;28;20859;-69
2022/03/20 06:01:55;;;;;;;27.40;24.80;;;5.40;17.80;;;;;;5030441;28;20279;-68
2022/03/20 06:04:21;;;;;;;35.08;24.95;;;5.30;19.20;;;;;;5031570;28;20243;-69
2022/03/20 06:06:48;;;;;;;27.25;24.50;;;5.20;20.30;;;;;;5031406;28;20173;-68
2022/03/20 06:09:15;;;;;;;30.73;23.03;;;4.80;21.20;;;;;;5030363;28;20174;-69
2022/03/20 06:11:40;;;;;;;26.65;23.95;;;5.00;21.20;;;;;;5031562;28;20461;-69
2022/03/20 06:14:08;;;;;;;30.27;26.50;;;5.10;21.30;;;;;;5030930;28;20253;-68
2022/03/20 06:16:36;;;;;;;23.50;21.10;;;5.00;21.00;;;;;;5031204;28;20425;-69
2022/03/20 06:19:07;;;;;;;24.08;21.55;;;5.20;21.10;;;;;;5030350;28;20189;-69
2022/03/20 06:21:33;;;;;;;24.52;21.85;;;5.20;20.90;;;;;;5031605;28;20185;-69
2022/03/20 06:23:59;;;;;;;26.33;23.65;;;5.30;21.40;;;;;;5018046;28;20212;-69
2022/03/20 06:26:24;;;;;;;26.43;23.57;;;5.50;21.50;;;;;;5011754;28;20178;-69
2022/03/20 06:28:51;;;;;;;23.40;21.10;;;5.50;20.90;;;;;;5025091;28;20191;-69
2022/03/20 06:31:19;;;;;;;23.33;20.87;;;5.70;21.10;;;;;;5031794;28;20177;-69
2022/03/20 06:33:44;;;;;;;25.90;23.17;;;5.90;21.30;;;;;;5031917;28;20433;-68
2022/03/20 06:36:10;;;;;;;30.17;27.00;;;6.30;17.50;;;;;;5031431;28;20417;-68
2022/03/20 06:38:37;;;;;;;27.10;24.63;;;6.60;15.90;;;;;;5030790;28;20727;-68
2022/03/20 06:41:04;;;;;;;27.47;24.63;;;6.90;17.10;;;;;;5033735;28;20495;-68
2022/03/20 06:43:29;;;;;;;25.67;23.27;;;7.30;16.30;;;;;;5033765;28;20496;-68
2022/03/20 06:45:56;;;;;;;29.03;26.63;;;7.70;13.70;;;;;;5035595;28;20911;-67
2022/03/20 06:48:22;;;;;;;28.70;26.20;;;8.10;13.60;;;;;;5035066;28;20660;-68
2022/03/20 06:50:48;;;;;;;27.83;25.40;;;8.50;13.60;;;;;;5035679;28;20407;-68
2022/03/20 06:53:14;;;;;;;31.00;28.40;;;8.70;12.40;;;;;;5036031;28;20424;-68
2022/03/20 06:55:40;;;;;;;27.27;24.50;;;8.90;10.30;;;;;;5035359;28;20416;-68
2022/03/20 06:58:05;;;;;;;27.07;24.60;;;9.00;10.30;;;;;;5032259;28;20187;-68
2022/03/20 07:00:31;;;;;;;26.90;24.53;;;9.10;10.10;;;;;;5024544;28;20421;-68
2022/03/20 07:03:00;;;;;;;26.07;23.87;;;9.30;9.10;;;;;;5035216;28;20261;-68
2022/03/20 07:05:26;;;;;;;28.20;25.87;;;9.50;10.10;;;;;;5035571;28;20433;-68
2022/03/20 07:07:53;;;;;;;30.47;27.47;;;9.60;9.70;;;;;;5035431;28;20422;-68
2022/03/20 07:10:23;;;;;;;27.50;24.90;;;9.60;7.90;;;;;;5035120;28;20830;-68
2022/03/20 07:12:50;;;;;;;27.40;24.70;;;9.60;9.20;;;;;;5035424;28;20414;-68
2022/03/20 07:15:18;;;;;;;31.30;28.10;;;9.50;9.10;;;;;;5034986;28;20452;-68
2022/03/20 07:17:46;;;;;;;27.37;24.77;;;9.60;9.90;;;;;;5034707;28;20417;-68
2022/03/20 07:20:12;;;;;;;27.37;24.93;;;9.60;9.50;;;;;;5034157;28;20413;-68
2022/03/20 07:22:37;;;;;;;29.23;26.43;;;9.70;9.00;;;;;;5034786;28;20954;-68
2022/03/20 07:30:49;;;;;;;29.70;27.00;;;10.00;7.20;;;;;;5033106;28;20471;-68
2022/03/20 07:33:14;;;;;;;29.03;26.43;;;10.00;6.60;;;;;;5035080;28;20846;-68
2022/03/20 07:35:42;;;;;;;27.87;25.53;;;10.10;7.50;;;;;;5034877;28;20525;-68
2022/03/20 07:38:08;;;;;;;31.83;28.83;;;10.20;6.50;;;;;;5034923;28;20222;-68
2022/03/20 07:40:33;;;;;;;30.23;27.40;;;10.30;6.30;;;;;;5034951;28;20498;-68
2022/03/20 07:42:59;;;;;;;27.33;25.03;;;10.30;5.80;;;;;;5034228;28;20504;-69
2022/03/20 07:45:25;;;;;;;27.60;25.17;;;10.20;6.90;;;;;;5033962;28;20200;-70
2022/03/20 07:47:50;;;;;;;30.43;27.50;;;10.40;9.10;;;;;;5033614;28;20179;-70
2022/03/20 07:50:16;;;;;;;30.03;27.33;;;10.50;6.60;;;;;;5033843;28;20179;-70
2022/03/20 07:52:42;;;;;;;29.77;27.00;;;10.50;5.10;;;;;;5031117;28;20186;-70
2022/03/20 07:55:08;;;;;;;28.87;25.97;;;10.60;6.50;;;;;;5033820;28;20190;-70
2022/03/20 07:57:40;;;;;;;26.27;23.93;;;10.70;5.90;;;;;;5033428;28;20414;-71
2022/03/20 08:00:06;;;;;;;26.83;24.27;;;10.80;6.30;;;;;;5033736;28;20799;-69
2022/03/20 08:02:32;;;;;;;27.60;25.13;;;10.90;5.10;;;;;;5034068;28;20406;-70
2022/03/20 08:04:57;;;;;;;27.73;25.10;;;11.10;4.80;;;;;;5033455;28;20469;-70
2022/03/20 08:07:24;;;;;;;28.60;26.20;;;11.30;4.90;;;;;;5033255;28;20177;-69
2022/03/20 08:09:50;;;;;;;28.20;25.30;;;11.60;6.20;;;;;;5033574;28;20414;-69
2022/03/20 08:12:15;;;;;;;31.60;26.43;;;11.80;4.30;;;;;;5033482;28;20418;-69
2022/03/20 08:14:41;;;;;;;27.83;25.37;;;11.90;5.70;;;;;;5033194;28;20213;-70
2022/03/20 08:17:08;;;;;;;28.03;25.63;;;12.10;6.00;;;;;;5031042;28;20206;-68
2022/03/20 08:19:34;;;;;;;25.20;23.13;;;12.20;4.60;;;;;;5028962;28;20193;-70
2022/03/20 08:22:02;;;;;;;25.97;23.80;;;12.30;4.70;;;;;;5029032;28;20502;-69
2022/03/20 08:24:28;;;;;;;26.93;24.90;;;12.40;5.30;;;;;;5028671;28;20497;-69
2022/03/20 08:26:53;;;;;;;30.27;27.60;;;12.50;3.50;;;;;;5028689;28;20440;-75
2022/03/20 08:29:19;;;;;;;29.37;26.87;;;12.70;4.80;;;;;;5029161;28;20568;-69
2022/03/20 08:31:47;;;;;;;28.27;25.77;;;12.70;7.00;;;;;;5027686;28;20612;-68
2022/03/20 08:34:14;;;;;;;29.27;26.77;;;12.50;7.20;;;;;;5029889;28;20203;-71
2022/03/20 08:36:41;;;;;;;27.90;25.67;;;12.50;6.90;;;;;;5031420;28;20411;-70
2022/03/20 08:39:07;;;;;;;26.23;23.97;;;12.40;7.40;;;;;;5033301;28;20439;-69
2022/03/20 08:41:34;;;;;;;27.27;24.50;;;12.30;7.70;;;;;;5032945;28;20449;-69
2022/03/20 08:44:00;;;;;;;28.93;25.70;;;12.20;7.20;;;;;;5032700;28;20233;-69
2022/03/20 08:46:25;;;;;;;29.60;26.70;;;12.20;7.70;;;;;;5031492;28;20445;-69
2022/03/20 08:48:51;;;;;;;31.80;28.97;;;12.10;8.10;;;;;;5033753;28;20425;-67
2022/03/20 08:51:17;;;;;;;27.93;25.27;;;12.10;7.70;;;;;;5021491;28;20277;-67
2022/03/20 08:53:43;;;;;;;29.97;27.20;;;12.10;7.70;;;;;;5013795;28;20199;-67
2022/03/20 08:56:08;;;;;;;30.53;28.13;;;11.90;8.00;;;;;;5012571;28;20426;-68
2022/03/20 08:58:34;;;;;;;28.63;26.33;;;11.80;8.20;;;;;;5020199;28;20228;-67
2022/03/20 09:00:59;;;;;;;34.33;25.90;;;11.60;8.20;;;;;;5033135;28;20183;-67
2022/03/20 09:03:25;;;;;;;30.23;27.20;;;11.30;7.50;;;;;;5033002;28;20214;-67
2022/03/20 09:05:51;;;;;;;29.27;26.43;;;11.10;8.40;;;;;;5033189;28;20194;-67
2022/03/20 09:08:16;;;;;;;28.47;26.00;;;11.20;9.10;;;;;;5033239;28;20171;-67
2022/03/20 09:10:42;;;;;;;28.43;25.87;;;11.10;8.70;;;;;;5032969;28;20761;-67
2022/03/20 09:13:08;;;;;;;26.93;24.70;;;10.90;9.00;;;;;;5032808;28;20181;-67
2022/03/20 09:15:33;;;;;;;27.77;25.20;;;10.70;9.00;;;;;;5029483;28;20947;-67
2022/03/20 09:20:44;;;;;;;25.60;23.20;;;11.00;9.00;;;;;;5032625;28;20237;-67
2022/03/20 09:23:11;;;;;;;28.60;25.87;;;11.20;7.80;;;;;;5031965;28;20475;-67
2022/03/20 09:25:37;;;;;;;27.87;25.40;;;11.20;7.10;;;;;;5032263;28;20428;-66
2022/03/20 09:28:05;;;;;;;28.07;25.37;;;11.30;8.30;;;;;;5031945;28;20499;-67
2022/03/20 09:30:31;;;;;;;27.43;24.93;;;11.20;9.40;;;;;;5032329;28;20677;-67
2022/03/20 09:32:57;;;;;;;27.60;24.77;;;11.40;10.00;;;;;;5032116;28;20449;-67
2022/03/20 09:35:23;;;;;;;28.97;26.13;;;11.30;8.30;;;;;;5032752;28;20456;-67
2022/03/20 09:37:48;;;;;;;24.97;22.80;;;11.20;8.80;;;;;;5031819;28;20246;-67
2022/03/20 09:40:15;;;;;;;28.70;26.10;;;11.30;9.30;;;;;;5031475;28;20269;-67
2022/03/20 09:42:41;;;;;;;28.10;25.77;;;11.10;8.80;;;;;;5031825;28;20365;-67
2022/03/20 09:45:09;;;;;;;24.97;23.03;;;11.20;8.20;;;;;;5031282;28;20569;-67
2022/03/20 09:47:39;;;;;;;27.70;25.33;;;11.20;7.80;;;;;;5031290;28;20180;-67
2022/03/20 09:50:06;;;;;;;28.10;25.67;;;11.20;8.90;;;;;;5031725;28;20422;-67
2022/03/20 09:52:33;;;;;;;27.03;24.43;;;11.50;8.10;;;;;;5031444;28;20462;-67
2022/03/20 09:54:59;;;;;;;27.77;24.93;;;11.60;7.80;;;;;;5030842;28;20450;-67
2022/03/20 09:57:29;;;;;;;26.13;23.67;;;11.90;8.30;;;;;;5030407;28;20429;-67
2022/03/20 09:59:56;;;;;;;25.27;23.27;;;12.10;7.50;;;;;;5031759;28;20798;-67
2022/03/20 10:02:26;;;;;;;27.30;25.17;;;12.20;6.10;;;;;;5031755;28;20422;-67
2022/03/20 10:05:11;;;;;;;26.60;24.57;;;12.30;6.00;;;;;;5030427;28;21005;-67
2022/03/20 10:07:40;;;;;;;28.87;26.17;;;12.50;6.00;;;;;;5031425;28;20427;-67
2022/03/20 10:10:19;;;;;;;23.33;21.27;;;12.70;5.80;;;;;;5031722;28;20928;-67
2022/03/20 10:12:49;;;;;;;24.90;22.60;;;12.80;5.70;;;;;;5031776;28;20909;-67
2022/03/20 10:15:38;;;;;;;25.23;23.20;;;13.10;4.80;;;;;;5031839;28;20824;-67
2022/03/20 10:18:17;;;;;;;27.20;25.20;;;13.10;4.00;;;;;;5035396;28;20415;-67
2022/03/20 10:20:47;;;;;;;26.33;24.07;;;12.90;4.90;;;;;;5035616;28;20785;-67
2022/03/20 10:23:48;;;;;;;24.43;22.60;;;13.10;4.50;;;;;;5034784;28;20983;-67
2022/03/20 10:26:19;;;;;;;24.93;23.03;;;13.40;4.90;;;;;;4974367;28;20438;-68
2022/03/20 10:28:49;;;;;;;25.40;23.10;;;13.70;5.50;;;;;;5025206;28;20426;-67
2022/03/20 10:31:23;;;;;;;27.97;25.17;;;13.70;3.20;;;;;;5035540;28;20437;-68
2022/03/20 10:34:06;;;;;;;27.60;25.13;;;14.10;3.50;;;;;;5035603;28;20935;-67
2022/03/20 10:36:36;;;;;;;26.07;24.07;;;14.20;3.60;;;;;;5033174;28;20429;-67
2022/03/20 10:39:08;;;;;;;25.10;23.27;;;14.60;3.40;;;;;;5014058;28;20457;-67
2022/03/20 10:41:34;;;;;;;25.37;23.43;;;15.00;4.00;;;;;;5015655;28;20407;-68
2022/03/20 10:44:01;;;;;;;27.33;24.80;;;15.20;1.90;;;;;;5015509;28;20466;-68
2022/03/20 10:46:29;;;;;;;24.27;22.43;;;14.80;2.30;;;;;;5022876;28;20461;-68
2022/03/20 10:48:57;;;;;;;23.30;21.23;;;15.20;2.60;;;;;;5035116;28;20414;-68
2022/03/20 10:51:37;;;;;;;25.47;23.30;;;15.10;2.30;;;;;;5035454;28;20508;-67
2022/03/20 10:54:10;;;;;;;26.20;23.73;;;15.20;2.20;;;;;;5035032;28;20491;-68
2022/03/20 10:56:38;;;;;;;24.40;22.57;;;15.20;1.70;;;;;;5034904;28;20820;-68
2022/03/20 10:59:14;;;;;;;24.17;22.30;;;15.40;2.30;;;;;;5033967;28;20852;-67
2022/03/20 11:01:41;;;;;;;23.50;21.43;;;15.10;1.00;;;;;;5034480;28;20417;-67
2022/03/20 11:04:11;;;;;;;23.27;21.37;;;14.80;1.00;;;;;;5034826;28;20512;-67
2022/03/20 11:06:37;;;;;;;24.40;22.30;;;14.60;1.00;;;;;;5034752;28;20937;-68
2022/03/20 11:09:04;;;;;;;22.37;20.47;;;14.60;1.00;;;;;;5035120;28;20501;-68
2022/03/20 11:11:33;;;;;;;23.63;21.93;;;14.70;1.00;;;;;;5034593;28;20406;-67
2022/03/20 11:14:00;;;;;;;22.70;21.20;;;14.90;1.00;;;;;;5031957;28;21079;-67
2022/03/20 11:16:28;;;;;;;24.83;23.03;;;15.20;1.00;;;;;;5031596;28;20512;-68
2022/03/20 11:18:54;;;;;;;23.47;21.73;;;15.20;1.00;;;;;;5033518;28;20409;-67
2022/03/20 11:21:29;;;;;;;22.53;20.57;;;15.50;1.00;;;;;;5033721;28;20433;-69
2022/03/20 11:23:58;;;;;;;23.40;21.57;;;15.70;1.00;;;;;;5014557;28;20577;-67
2022/03/20 11:26:25;;;;;;;22.50;20.50;;;15.90;1.00;;;;;;5014266;28;20443;-67
2022/03/20 11:28:57;;;;;;;22.03;20.33;;;15.90;1.00;;;;;;5015134;28;20414;-67
2022/03/20 11:31:24;;;;;;;23.47;21.40;;;15.90;1.00;;;;;;5034442;28;20421;-67
2022/03/20 11:33:50;;;;;;;23.27;21.37;;;16.00;1.00;;;;;;5034145;28;20860;-67
2022/03/20 11:36:16;;;;;;;22.67;20.60;;;16.10;1.00;;;;;;5033954;28;20468;-70
2022/03/20 11:38:42;;;;;;;23.40;21.80;;;16.10;1.00;;;;;;5033858;28;20450;-68
2022/03/20 11:41:23;;;;;;;21.87;20.07;;;16.10;1.00;;;;;;5034058;28;20895;-68
2022/03/20 11:44:20;;;;;;;24.30;22.30;;;16.10;1.00;;;;;;5033753;28;20221;-67
2022/03/20 11:46:46;;;;;;;23.57;21.83;;;16.20;1.00;;;;;;5034028;28;20418;-67
2022/03/20 11:49:19;;;;;;;23.67;21.80;;;16.20;1.00;;;;;;5033947;28;20442;-67
2022/03/20 11:51:54;;;;;;;27.53;24.80;;;16.30;1.00;;;;;;5033521;28;20422;-68
2022/03/20 11:54:20;;;;;;;21.83;20.10;;;16.30;1.00;;;;;;5033709;28;20437;-66
2022/03/20 11:56:48;;;;;;;24.60;22.00;;;16.00;1.00;;;;;;5033676;28;20410;-67
2022/03/20 11:59:48;;;;;;;24.90;23.03;;;15.80;1.00;;;;;;5033882;28;20641;-67
2022/03/20 12:02:15;;;;;;;22.50;20.97;;;15.50;1.00;;;;;;5033560;28;20414;-67
2022/03/20 12:05:06;;;;;;;22.47;20.87;;;15.60;1.00;;;;;;5033299;28;20457;-67
2022/03/20 12:07:49;;;;;;;23.30;21.23;;;15.80;1.00;;;;;;5013569;28;20977;-66
2022/03/20 12:10:34;;;;;;;23.03;21.13;;;15.60;1.00;;;;;;5022277;28;20923;-66
2022/03/20 12:13:36;;;;;;;22.13;20.47;;;15.50;1.00;;;;;;5033322;28;20402;-67
2022/03/20 12:16:02;;;;;;;23.53;21.83;;;15.60;1.00;;;;;;5013676;28;20414;-67
2022/03/20 12:18:28;;;;;;;21.70;20.20;;;15.70;1.00;;;;;;5013147;28;20415;-68
2022/03/20 12:21:02;;;;;;;23.97;22.07;;;15.70;1.00;;;;;;5025535;28;20657;-67
2022/03/20 12:23:43;;;;;;;21.80;20.47;;;15.80;1.00;;;;;;5033140;28;21009;-69
2022/03/20 12:26:31;;;;;;;24.17;22.47;;;16.00;1.00;;;;;;5033230;28;20536;-68
2022/03/20 12:29:35;;;;;;;22.10;20.77;;;16.00;1.00;;;;;;5032929;28;20510;-67
2022/03/20 12:32:12;;;;;;;23.37;21.67;;;16.00;1.00;;;;;;5033164;28;20402;-67
2022/03/20 12:34:41;;;;;;;23.60;21.40;;;15.90;1.00;;;;;;5032519;28;20445;-68
2022/03/20 12:37:33;;;;;;;22.80;21.30;;;15.90;1.00;;;;;;5032323;28;20923;-68
2022/03/20 12:40:05;;;;;;;22.73;20.80;;;16.00;1.00;;;;;;5033034;28;20759;-66
2022/03/20 12:42:33;;;;;;;23.77;21.80;;;15.80;1.00;;;;;;5032795;28;21021;-68
2022/03/20 12:44:59;;;;;;;24.10;22.40;;;15.60;1.00;;;;;;5012978;28;20462;-68
2022/03/20 12:47:27;;;;;;;23.10;21.30;;;15.70;1.00;;;;;;5012787;28;20480;-67
2022/03/20 12:50:15;;;;;;;23.97;21.87;;;15.80;1.00;;;;;;5011160;28;20943;-68
2022/03/20 12:52:41;;;;;;;21.50;20.00;;;15.70;1.00;;;;;;5011814;28;20441;-67
2022/03/20 12:55:09;;;;;;;25.27;23.17;;;15.90;1.00;;;;;;5012564;28;20809;-68
2022/03/20 12:57:42;;;;;;;24.03;22.13;;;15.70;1.00;;;;;;5012528;28;20288;-68
2022/03/20 13:00:18;;;;;;;23.97;22.33;;;15.60;1.00;;;;;;5015251;28;20419;-65
2022/03/20 13:03:00;;;;;;;23.40;21.60;;;15.70;1.00;;;;;;5015763;28;20422;-68
2022/03/20 13:05:27;;;;;;;26.50;24.40;;;15.80;1.00;;;;;;5016484;28;20456;-68
2022/03/20 13:07:53;;;;;;;25.00;22.90;;;15.60;1.00;;;;;;5032063;28;20402;-68
2022/03/20 13:10:31;;;;;;;22.37;20.90;;;15.60;1.00;;;;;;5021549;28;20514;-68
2022/03/20 13:13:01;;;;;;;24.83;22.40;;;15.50;1.00;;;;;;5027535;28;20518;-68
2022/03/20 13:15:29;;;;;;;24.20;21.80;;;15.80;1.00;;;;;;5012606;28;20431;-68